Time;durP1;ratioP1;P1;durP2;ratioP2;P2;SDS_P1;SDS_P2;PMS_P1;PMS_P2;Temp;Humidity;BMP_temperature;BMP_pressure;BME280_temperature;BME280_humidity;BME280_pressure;Samples;Min_cycle;Max_cycle;Signal;HPM_P1;HPM_P2
2022/09/21 00:01:11;;;;;;;27.80;11.53;;;4.60;99.90;;;;;;5121102;28;20256;-76
2022/09/21 00:03:40;;;;;;;37.83;11.77;;;4.60;99.90;;;;;;5120113;27;20247;-76
2022/09/21 00:06:09;;;;;;;22.13;10.27;;;4.70;99.90;;;;;;5119829;28;20206;-76
2022/09/21 00:08:36;;;;;;;46.13;12.17;;;4.70;99.90;;;;;;5119236;28;20252;-76
2022/09/21 00:11:04;;;;;;;37.30;12.00;;;4.60;99.90;;;;;;5118310;28;20612;-76
2022/09/21 00:13:32;;;;;;;28.70;11.97;;;4.70;99.90;;;;;;5118240;28;20203;-76
2022/09/21 00:16:00;;;;;;;55.67;13.57;;;4.70;99.90;;;;;;5115456;28;20570;-77
2022/09/21 00:18:27;;;;;;;21.07;10.57;;;4.50;99.90;;;;;;5114552;28;20271;-76
2022/09/21 00:20:53;;;;;;;39.13;12.43;;;4.40;99.90;;;;;;5113791;28;20201;-77
2022/09/21 00:23:20;;;;;;;27.97;10.93;;;4.30;99.90;;;;;;5114040;28;20201;-77
2022/09/21 00:25:47;;;;;;;42.00;11.87;;;4.30;99.90;;;;;;5113147;28;20201;-76
2022/09/21 00:28:13;;;;;;;35.07;11.20;;;4.30;99.90;;;;;;5113591;28;20196;-76
2022/09/21 00:30:40;;;;;;;21.67;9.83;;;4.20;99.90;;;;;;5113680;28;20200;-76
2022/09/21 00:33:08;;;;;;;19.77;9.40;;;4.20;99.90;;;;;;5113524;28;20247;-76
2022/09/21 00:35:35;;;;;;;19.90;10.83;;;4.10;99.90;;;;;;5113705;28;20328;-77
2022/09/21 00:38:02;;;;;;;21.63;10.40;;;4.20;99.90;;;;;;5113786;28;20201;-76
2022/09/21 00:40:29;;;;;;;20.27;9.93;;;4.10;99.90;;;;;;5113697;28;20233;-76
2022/09/21 00:43:11;;;;;;;23.33;9.73;;;4.20;99.90;;;;;;5114151;28;20720;-76
2022/09/21 00:45:38;;;;;;;18.10;9.40;;;4.10;99.90;;;;;;5115420;28;20230;-76
2022/09/21 00:48:05;;;;;;;29.93;9.60;;;4.10;99.90;;;;;;5115599;28;20191;-76
2022/09/21 00:50:34;;;;;;;56.93;9.53;;;4.10;99.90;;;;;;5115854;28;20229;-76
2022/09/21 00:53:03;;;;;;;48.73;10.40;;;4.10;99.90;;;;;;5115432;28;20242;-76
2022/09/21 00:55:36;;;;;;;61.23;10.07;;;4.20;99.90;;;;;;5115927;28;20203;-76
2022/09/21 00:58:08;;;;;;;38.07;10.70;;;4.30;99.90;;;;;;5115772;28;20266;-76
2022/09/21 01:00:35;;;;;;;46.30;11.13;;;4.40;99.90;;;;;;5115477;28;20713;-76
2022/09/21 01:03:02;;;;;;;63.00;11.47;;;4.40;99.90;;;;;;5115447;28;20274;-76
2022/09/21 01:05:29;;;;;;;45.50;10.33;;;4.50;99.90;;;;;;5114842;28;20197;-75
2022/09/21 01:07:58;;;;;;;74.07;11.17;;;4.40;99.90;;;;;;5114081;28;20287;-75
2022/09/21 01:10:26;;;;;;;70.67;11.20;;;4.50;99.90;;;;;;5113417;28;20271;-75
2022/09/21 01:13:05;;;;;;;55.33;11.07;;;4.40;99.90;;;;;;5114156;28;20488;-76
2022/09/21 01:15:40;;;;;;;59.77;10.40;;;4.40;99.90;;;;;;5114519;28;20237;-76
2022/09/21 01:18:13;;;;;;;74.40;11.20;;;4.50;99.90;;;;;;5117167;28;20663;-75
2022/09/21 01:21:13;;;;;;;69.47;10.57;;;4.40;99.90;;;;;;5118587;28;20611;-76
2022/09/21 01:23:59;;;;;;;42.87;10.27;;;4.40;99.90;;;;;;5118180;28;20238;-76
2022/09/21 01:26:42;;;;;;;19.90;8.93;;;4.30;99.90;;;;;;5114060;28;20209;-76
2022/09/21 01:29:23;;;;;;;38.40;9.67;;;4.20;99.90;;;;;;5113301;28;20656;-76
2022/09/21 01:31:55;;;;;;;19.93;8.40;;;4.10;99.90;;;;;;5113759;28;20206;-76
2022/09/21 01:34:27;;;;;;;26.33;9.10;;;4.00;99.90;;;;;;5113697;28;20291;-75
2022/09/21 01:36:56;;;;;;;44.37;9.20;;;4.10;99.90;;;;;;5114116;28;20257;-76
2022/09/21 01:39:25;;;;;;;35.80;9.30;;;4.10;99.90;;;;;;5118175;28;20591;-76
2022/09/21 01:41:53;;;;;;;29.80;9.37;;;4.00;99.90;;;;;;5120404;28;20194;-76
2022/09/21 01:44:24;;;;;;;21.20;7.63;;;3.90;99.90;;;;;;5119840;28;20614;-76
2022/09/21 01:46:52;;;;;;;54.70;9.87;;;3.90;99.90;;;;;;5120286;28;20237;-75
2022/09/21 01:49:24;;;;;;;31.00;8.30;;;3.90;99.90;;;;;;5119710;28;20197;-76
2022/09/21 01:51:59;;;;;;;49.60;9.03;;;3.80;99.90;;;;;;5120070;27;20716;-76
2022/09/21 01:54:35;;;;;;;54.70;9.43;;;3.90;99.90;;;;;;5119951;28;20204;-76
2022/09/21 01:57:08;;;;;;;63.87;9.93;;;3.80;99.90;;;;;;5119735;28;20203;-76
2022/09/21 01:59:42;;;;;;;44.20;8.87;;;3.70;99.90;;;;;;5119147;28;20228;-76
2022/09/21 02:02:14;;;;;;;74.87;9.90;;;3.70;99.90;;;;;;5119298;28;20244;-76
2022/09/21 02:04:40;;;;;;;53.03;9.57;;;3.60;99.90;;;;;;5117387;28;20199;-76
2022/09/21 02:07:08;;;;;;;35.10;8.30;;;3.60;99.90;;;;;;5118320;28;20725;-76
2022/09/21 02:09:36;;;;;;;65.53;9.00;;;3.60;99.90;;;;;;5118495;28;20245;-76
2022/09/21 02:12:03;;;;;;;24.17;7.93;;;3.50;99.90;;;;;;5118270;28;20242;-75
2022/09/21 02:14:32;;;;;;;49.30;8.37;;;3.40;99.90;;;;;;5118797;28;20217;-76
2022/09/21 02:17:10;;;;;;;27.40;8.60;;;3.40;99.90;;;;;;5118782;28;20199;-76
2022/09/21 02:19:44;;;;;;;70.07;10.30;;;3.40;99.90;;;;;;5118563;28;20225;-75
2022/09/21 02:22:15;;;;;;;33.90;8.77;;;3.40;99.90;;;;;;5118754;28;20697;-76
2022/09/21 02:24:45;;;;;;;38.33;9.20;;;3.40;99.90;;;;;;5119314;27;20268;-75
2022/09/21 02:27:24;;;;;;;51.23;9.27;;;3.50;99.90;;;;;;5118937;28;20198;-75
2022/09/21 02:29:54;;;;;;;43.33;8.40;;;3.50;99.90;;;;;;5118648;28;20203;-76
2022/09/21 02:32:34;;;;;;;13.77;8.03;;;3.50;99.90;;;;;;5118376;28;20254;-75
2022/09/21 02:35:03;;;;;;;23.90;8.93;;;3.40;99.90;;;;;;5118996;27;20256;-76
2022/09/21 02:37:40;;;;;;;28.47;8.40;;;3.40;99.90;;;;;;5117987;28;20203;-76
2022/09/21 02:40:16;;;;;;;22.40;8.73;;;3.40;99.90;;;;;;5117291;27;20223;-75
2022/09/21 02:42:45;;;;;;;36.13;8.67;;;3.40;99.90;;;;;;5118611;28;20199;-75
2022/09/21 02:45:18;;;;;;;29.43;8.57;;;3.50;99.90;;;;;;5117842;28;20201;-75
2022/09/21 02:47:49;;;;;;;29.83;7.77;;;3.50;99.90;;;;;;5118482;28;20256;-76
2022/09/21 02:50:20;;;;;;;30.00;8.13;;;3.40;99.90;;;;;;5118208;28;20268;-76
2022/09/21 02:52:47;;;;;;;21.37;8.70;;;3.50;99.90;;;;;;5115838;28;20642;-75
2022/09/21 02:55:16;;;;;;;23.27;7.70;;;3.40;99.90;;;;;;5116175;28;20202;-75
2022/09/21 02:57:44;;;;;;;20.10;7.77;;;3.50;99.90;;;;;;5116056;28;20200;-75
2022/09/21 03:00:12;;;;;;;33.47;7.83;;;3.50;99.90;;;;;;5115793;28;20223;-75
2022/09/21 03:02:39;;;;;;;33.50;8.97;;;3.50;99.90;;;;;;5115795;27;20651;-75
2022/09/21 03:05:09;;;;;;;28.03;8.07;;;3.50;99.90;;;;;;5115494;28;20201;-75
2022/09/21 03:07:36;;;;;;;36.20;8.30;;;3.50;99.90;;;;;;5115573;28;20200;-75
2022/09/21 03:10:05;;;;;;;28.10;8.03;;;3.50;99.90;;;;;;5117042;28;20203;-75
2022/09/21 03:12:32;;;;;;;29.93;7.77;;;3.50;99.90;;;;;;5116008;28;20563;-75
2022/09/21 03:14:58;;;;;;;34.37;8.23;;;3.50;99.90;;;;;;5115537;28;20192;-75
2022/09/21 03:17:26;;;;;;;38.40;8.77;;;3.50;99.90;;;;;;5115337;28;20203;-74
2022/09/21 03:19:54;;;;;;;15.30;7.73;;;3.40;99.90;;;;;;5115035;28;20310;-75
2022/09/21 03:22:22;;;;;;;44.63;9.40;;;3.40;99.90;;;;;;5115254;28;20224;-75
2022/09/21 03:24:50;;;;;;;31.47;8.37;;;3.40;99.90;;;;;;5115335;28;20192;-75
2022/09/21 03:27:19;;;;;;;22.00;7.40;;;3.30;99.90;;;;;;5115096;28;20249;-75
2022/09/21 03:29:45;;;;;;;16.80;7.27;;;3.20;99.90;;;;;;5115142;28;20195;-75
2022/09/21 03:32:13;;;;;;;44.70;9.37;;;3.30;99.90;;;;;;5114810;28;20203;-75
2022/09/21 03:34:40;;;;;;;15.77;7.23;;;3.30;99.90;;;;;;5114977;28;20203;-75
2022/09/21 03:37:09;;;;;;;32.50;8.60;;;3.20;99.90;;;;;;5114987;28;20260;-75
2022/09/21 03:39:37;;;;;;;23.73;8.33;;;3.20;99.90;;;;;;5114602;28;20682;-75
2022/09/21 03:42:04;;;;;;;30.43;7.57;;;3.20;99.90;;;;;;5114797;28;20196;-75
2022/09/21 03:44:31;;;;;;;32.67;8.13;;;3.30;99.90;;;;;;5114596;28;20252;-74
2022/09/21 03:46:57;;;;;;;81.33;10.10;;;3.20;99.90;;;;;;5114626;28;20249;-75
2022/09/21 03:49:25;;;;;;;40.40;8.23;;;3.20;99.90;;;;;;5114651;28;20200;-75
2022/09/21 03:51:51;;;;;;;37.03;8.87;;;3.20;99.90;;;;;;5114667;28;20626;-74
2022/09/21 03:54:18;;;;;;;23.20;8.17;;;3.20;99.90;;;;;;5114566;28;20245;-75
2022/09/21 03:56:46;;;;;;;13.23;7.63;;;3.20;99.90;;;;;;5114400;28;20200;-75
2022/09/21 03:59:12;;;;;;;47.43;9.17;;;3.10;99.90;;;;;;5114406;28;20201;-75
2022/09/21 04:01:39;;;;;;;59.50;8.77;;;3.20;99.90;;;;;;5113338;28;20247;-75
2022/09/21 04:04:05;;;;;;;39.77;8.97;;;3.20;99.90;;;;;;5114242;28;20200;-75
2022/09/21 04:06:32;;;;;;;72.90;9.60;;;3.20;99.90;;;;;;5114001;28;20195;-75
2022/09/21 04:09:01;;;;;;;21.90;8.17;;;3.20;99.90;;;;;;5115233;28;20560;-75
2022/09/21 04:11:28;;;;;;;22.70;8.33;;;3.10;99.90;;;;;;5115851;28;20278;-75
2022/09/21 04:13:56;;;;;;;32.60;9.10;;;3.10;99.90;;;;;;5116001;28;20239;-75
2022/09/21 04:16:24;;;;;;;22.73;8.73;;;3.00;99.90;;;;;;5117234;28;20206;-75
2022/09/21 04:18:51;;;;;;;17.03;7.77;;;3.00;99.90;;;;;;5117812;28;20199;-75
2022/09/21 04:21:18;;;;;;;31.00;8.83;;;3.00;99.90;;;;;;5117208;28;20300;-75
2022/09/21 04:23:45;;;;;;;17.97;8.60;;;2.90;99.90;;;;;;5116601;28;20221;-75
2022/09/21 04:26:22;;;;;;;19.87;8.80;;;2.80;99.90;;;;;;5114262;28;20196;-75
2022/09/21 04:28:49;;;;;;;34.83;9.13;;;2.80;99.90;;;;;;5117633;28;20192;-75
2022/09/21 04:31:17;;;;;;;27.63;8.60;;;2.80;99.90;;;;;;5117477;28;20203;-75
2022/09/21 04:33:44;;;;;;;17.83;8.57;;;2.70;99.90;;;;;;5118553;28;20199;-75
2022/09/21 04:36:11;;;;;;;15.37;8.53;;;2.70;99.90;;;;;;5119934;28;20540;-74
2022/09/21 04:38:39;;;;;;;29.23;8.57;;;2.80;99.90;;;;;;5118904;28;20199;-75
2022/09/21 04:41:05;;;;;;;25.40;8.47;;;2.80;99.90;;;;;;5117882;28;20261;-75
2022/09/21 04:43:32;;;;;;;33.93;9.10;;;2.80;99.90;;;;;;5115953;28;20720;-75
2022/09/21 04:46:05;;;;;;;12.23;8.80;;;2.80;99.90;;;;;;5116227;28;20206;-75
2022/09/21 04:48:33;;;;;;;13.57;8.30;;;2.90;99.90;;;;;;5113763;28;20244;-75
2022/09/21 04:50:59;;;;;;;12.47;8.70;;;2.70;99.90;;;;;;5114409;28;20192;-75
2022/09/21 04:53:26;;;;;;;44.37;9.77;;;2.80;99.90;;;;;;5113544;28;20244;-75
2022/09/21 04:55:54;;;;;;;15.47;8.27;;;2.70;99.90;;;;;;5113756;28;20199;-75
2022/09/21 04:58:21;;;;;;;17.07;8.37;;;2.70;99.90;;;;;;5113793;28;20195;-75
2022/09/21 05:00:49;;;;;;;14.60;8.87;;;2.70;99.90;;;;;;5113862;28;20223;-75
2022/09/21 05:03:16;;;;;;;15.33;8.53;;;2.80;99.90;;;;;;5114365;28;20299;-75
2022/09/21 05:05:48;;;;;;;11.97;7.97;;;2.80;99.90;;;;;;5113415;28;20204;-75
2022/09/21 05:08:15;;;;;;;16.93;8.77;;;2.70;99.90;;;;;;5113532;28;20196;-75
2022/09/21 05:10:41;;;;;;;17.80;8.40;;;2.80;99.90;;;;;;5114937;28;20199;-76
2022/09/21 05:13:08;;;;;;;20.97;9.77;;;2.80;99.90;;;;;;5117246;28;20643;-75
2022/09/21 05:15:36;;;;;;;14.37;9.60;;;2.80;99.90;;;;;;5118832;28;20268;-75
2022/09/21 05:18:03;;;;;;;11.93;8.20;;;2.70;99.90;;;;;;5118149;28;20203;-76
2022/09/21 05:20:29;;;;;;;13.97;8.57;;;2.70;99.90;;;;;;5118338;28;20678;-75
2022/09/21 05:23:00;;;;;;;14.17;9.97;;;2.80;99.90;;;;;;5118301;28;20280;-75
2022/09/21 05:25:27;;;;;;;14.83;8.43;;;2.90;99.90;;;;;;5118880;28;20200;-75
2022/09/21 05:27:53;;;;;;;16.20;9.47;;;2.70;99.90;;;;;;5118342;28;20195;-75
2022/09/21 05:30:21;;;;;;;14.30;9.97;;;2.60;99.90;;;;;;5118506;28;20245;-76
2022/09/21 05:32:52;;;;;;;13.20;8.73;;;2.70;99.90;;;;;;5118365;28;20233;-75
2022/09/21 05:35:26;;;;;;;18.73;10.33;;;2.80;99.90;;;;;;5118453;28;20257;-75
2022/09/21 05:38:00;;;;;;;15.77;10.47;;;2.90;99.90;;;;;;5118489;28;20199;-75
2022/09/21 05:40:28;;;;;;;35.03;11.77;;;3.00;99.90;;;;;;5118385;28;20219;-75
2022/09/21 05:42:55;;;;;;;30.73;13.03;;;3.10;99.90;;;;;;5118253;28;20593;-75
2022/09/21 05:45:22;;;;;;;19.93;12.77;;;3.20;99.90;;;;;;5117935;28;20198;-75
2022/09/21 05:48:06;;;;;;;18.53;11.90;;;3.20;99.90;;;;;;5118398;28;20198;-75
2022/09/21 05:50:57;;;;;;;16.73;11.37;;;3.30;99.90;;;;;;5118400;28;20208;-76
2022/09/21 05:53:48;;;;;;;18.20;11.37;;;3.40;99.90;;;;;;5118325;28;20210;-75
2022/09/21 05:56:24;;;;;;;22.03;12.43;;;3.50;99.90;;;;;;5118209;28;20536;-75
2022/09/21 05:58:59;;;;;;;18.40;11.40;;;3.60;99.90;;;;;;5117886;28;20195;-76
2022/09/21 06:01:38;;;;;;;28.90;12.53;;;3.70;99.90;;;;;;5120958;28;20319;-76
2022/09/21 06:04:10;;;;;;;31.67;12.70;;;3.80;99.90;;;;;;5120613;28;20655;-75
2022/09/21 06:06:36;;;;;;;28.17;12.83;;;3.90;99.90;;;;;;5121028;28;20189;-77
2022/09/21 06:09:05;;;;;;;24.00;12.33;;;4.00;99.90;;;;;;5119145;28;20725;-76
2022/09/21 06:11:32;;;;;;;21.10;12.67;;;4.10;99.90;;;;;;5118645;28;20262;-77
2022/09/21 06:14:00;;;;;;;20.43;12.33;;;4.20;99.90;;;;;;5117873;27;20202;-76
2022/09/21 06:16:27;;;;;;;20.47;11.50;;;4.30;99.90;;;;;;5118336;28;20227;-75
2022/09/21 06:18:53;;;;;;;20.13;12.03;;;4.30;99.90;;;;;;5119459;28;20202;-76
2022/09/21 06:21:20;;;;;;;19.97;12.03;;;4.30;99.90;;;;;;5119603;28;20242;-76
2022/09/21 06:23:47;;;;;;;20.53;11.53;;;4.30;99.90;;;;;;5117980;28;20195;-75
2022/09/21 06:26:16;;;;;;;24.63;12.07;;;4.30;99.90;;;;;;5116515;28;20206;-75
2022/09/21 06:28:43;;;;;;;19.33;11.53;;;4.30;99.90;;;;;;5116025;28;20338;-75
2022/09/21 06:31:09;;;;;;;19.50;11.13;;;4.40;99.90;;;;;;5115810;28;20647;-75
2022/09/21 06:33:36;;;;;;;20.83;12.93;;;4.60;99.90;;;;;;5115608;27;20203;-75
2022/09/21 06:36:04;;;;;;;16.80;11.87;;;4.60;99.90;;;;;;5116032;28;20349;-75
2022/09/21 06:38:30;;;;;;;20.17;12.80;;;4.50;99.90;;;;;;5115710;28;20198;-75
2022/09/21 06:41:01;;;;;;;17.50;12.60;;;4.70;99.90;;;;;;5115366;28;20225;-76
2022/09/21 06:43:30;;;;;;;20.37;12.97;;;4.90;99.90;;;;;;5115538;28;20209;-76
2022/09/21 06:45:58;;;;;;;21.27;13.40;;;5.00;99.90;;;;;;5115300;28;20251;-77
2022/09/21 06:48:25;;;;;;;22.10;13.60;;;5.20;99.90;;;;;;5115390;28;20657;-76
2022/09/21 06:50:57;;;;;;;23.43;13.47;;;5.30;99.90;;;;;;5115365;28;20535;-77
2022/09/21 06:53:23;;;;;;;23.03;14.13;;;5.40;99.90;;;;;;5115263;28;20199;-77
2022/09/21 06:55:51;;;;;;;58.53;15.47;;;5.50;99.90;;;;;;5115038;28;20203;-76
2022/09/21 06:58:18;;;;;;;56.20;15.40;;;5.80;99.90;;;;;;5114754;28;20199;-76
2022/09/21 07:00:46;;;;;;;67.87;15.70;;;6.00;99.90;;;;;;5115202;28;20220;-76
2022/09/21 07:03:13;;;;;;;23.67;14.13;;;6.10;99.90;;;;;;5115187;28;20561;-76
2022/09/21 07:05:39;;;;;;;37.03;13.77;;;6.30;99.90;;;;;;5115090;28;20283;-76
2022/09/21 07:08:06;;;;;;;46.77;14.30;;;6.50;99.90;;;;;;5114844;27;20234;-77
2022/09/21 07:10:33;;;;;;;59.17;14.33;;;6.60;99.90;;;;;;5114776;28;20199;-75
2022/09/21 07:13:03;;;;;;;58.73;15.30;;;6.90;99.90;;;;;;5114617;28;20199;-75
2022/09/21 07:15:30;;;;;;;26.60;12.40;;;7.10;99.90;;;;;;5114658;28;20290;-75
2022/09/21 07:17:58;;;;;;;30.07;11.97;;;7.20;99.90;;;;;;5114761;28;20201;-75
2022/09/21 07:20:24;;;;;;;39.97;13.47;;;7.50;99.90;;;;;;5114460;28;20200;-75
2022/09/21 07:22:51;;;;;;;40.53;12.27;;;7.60;99.90;;;;;;5114249;28;20276;-76
2022/09/21 07:25:18;;;;;;;44.57;12.33;;;7.70;99.90;;;;;;5114606;28;20244;-76
2022/09/21 07:27:46;;;;;;;53.37;11.70;;;7.70;99.90;;;;;;5114403;27;20667;-78
2022/09/21 07:30:13;;;;;;;18.63;10.37;;;7.80;99.90;;;;;;5114643;28;20286;-76
2022/09/21 07:32:39;;;;;;;40.30;9.27;;;7.90;99.90;;;;;;5114474;28;20226;-76
2022/09/21 07:35:08;;;;;;;25.67;8.50;;;8.00;99.90;;;;;;5114180;28;20643;-77
2022/09/21 07:37:34;;;;;;;12.83;6.27;;;8.20;99.90;;;;;;5114200;28;20252;-77
2022/09/21 07:40:05;;;;;;;6.73;5.40;;;8.30;99.90;;;;;;5114077;28;20199;-77
2022/09/21 07:42:31;;;;;;;7.00;5.07;;;8.50;99.90;;;;;;5114271;28;20223;-76
2022/09/21 07:44:58;;;;;;;11.40;5.77;;;8.60;99.90;;;;;;5114213;28;20195;-75
2022/09/21 07:47:26;;;;;;;11.30;5.87;;;8.70;99.90;;;;;;5113897;28;20249;-77
2022/09/21 07:49:54;;;;;;;12.97;5.77;;;8.80;99.90;;;;;;5113982;28;20659;-76
2022/09/21 07:52:22;;;;;;;167.73;16.67;;;9.00;99.90;;;;;;5113934;28;20200;-77
2022/09/21 07:54:49;;;;;;;8.50;5.83;;;9.10;99.90;;;;;;5113897;28;20563;-76
2022/09/21 07:59:59;;;;;;;9.23;5.97;;;9.10;99.90;;;;;;5113865;28;20274;-75
2022/09/21 08:02:26;;;;;;;12.47;7.23;;;9.20;99.90;;;;;;5113793;28;20219;-75
2022/09/21 08:04:53;;;;;;;8.67;7.60;;;9.30;99.90;;;;;;5113734;28;20212;-75
2022/09/21 08:07:22;;;;;;;10.47;7.37;;;9.40;99.90;;;;;;5113910;28;20202;-75
2022/09/21 08:09:50;;;;;;;16.20;7.87;;;9.60;99.90;;;;;;5113969;28;20207;-75
2022/09/21 08:12:17;;;;;;;10.23;7.93;;;9.30;99.90;;;;;;5113623;28;20665;-75
2022/09/21 08:14:44;;;;;;;8.80;7.90;;;9.20;99.90;;;;;;5113716;28;20251;-75
2022/09/21 08:17:11;;;;;;;13.67;8.70;;;9.70;99.90;;;;;;5113532;28;20291;-78
2022/09/21 08:19:37;;;;;;;11.67;8.77;;;10.00;99.90;;;;;;5113554;28;20192;-77
2022/09/21 08:22:05;;;;;;;10.03;8.30;;;10.50;99.90;;;;;;5113530;28;20243;-76
2022/09/21 08:24:34;;;;;;;8.90;8.00;;;10.90;99.90;;;;;;5113666;28;20562;-76
2022/09/21 08:27:00;;;;;;;8.57;7.67;;;10.90;99.90;;;;;;5113418;28;20199;-75
2022/09/21 08:29:27;;;;;;;10.03;8.37;;;11.10;99.90;;;;;;5113521;28;20195;-76
2022/09/21 08:31:54;;;;;;;8.90;7.50;;;11.10;99.90;;;;;;5113451;28;20276;-76
2022/09/21 08:34:22;;;;;;;8.27;7.47;;;11.30;99.90;;;;;;5113239;28;20192;-76
2022/09/21 08:36:48;;;;;;;8.73;7.83;;;11.30;99.90;;;;;;5113557;28;20239;-76
2022/09/21 08:39:15;;;;;;;8.10;7.33;;;11.60;99.90;;;;;;5113532;28;20199;-76
2022/09/21 08:42:02;;;;;;;11.17;7.50;;;11.70;99.90;;;;;;5113095;28;20747;-76
2022/09/21 08:44:34;;;;;;;11.03;7.63;;;11.80;99.90;;;;;;5113211;28;20204;-76
2022/09/21 08:47:05;;;;;;;9.13;7.47;;;12.00;99.90;;;;;;5112589;28;20615;-76
2022/09/21 08:49:35;;;;;;;9.97;8.47;;;11.90;99.90;;;;;;5113411;28;20244;-77
2022/09/21 08:52:05;;;;;;;9.37;8.20;;;11.80;99.90;;;;;;5113035;28;20199;-76
2022/09/21 08:54:38;;;;;;;10.10;8.30;;;11.60;99.90;;;;;;5113111;28;20196;-77
2022/09/21 08:57:11;;;;;;;9.10;8.20;;;11.90;99.90;;;;;;5112854;28;20249;-76
2022/09/21 08:59:41;;;;;;;11.83;7.57;;;11.80;99.90;;;;;;5113261;28;20256;-76
2022/09/21 09:02:28;;;;;;;9.03;8.13;;;11.70;99.90;;;;;;5112652;28;20698;-77
2022/09/21 09:05:02;;;;;;;9.47;8.03;;;11.90;99.90;;;;;;5113001;28;20253;-76
2022/09/21 09:07:45;;;;;;;9.20;8.17;;;12.10;99.90;;;;;;5112970;28;20249;-76
2022/09/21 09:10:25;;;;;;;8.97;8.07;;;11.90;99.90;;;;;;5112987;28;20198;-76
2022/09/21 09:13:05;;;;;;;9.30;7.97;;;12.10;99.90;;;;;;5112876;28;20199;-76
2022/09/21 09:15:55;;;;;;;7.80;7.00;;;12.70;99.90;;;;;;5112983;28;20196;-77
2022/09/21 09:18:29;;;;;;;9.07;6.07;;;13.00;99.90;;;;;;5112891;28;20200;-76
2022/09/21 09:21:00;;;;;;;7.57;6.23;;;13.40;99.90;;;;;;5112420;28;21011;-76
2022/09/21 09:23:32;;;;;;;6.27;5.67;;;13.60;99.90;;;;;;5112982;28;20332;-76
2022/09/21 09:26:03;;;;;;;6.97;5.37;;;13.80;99.90;;;;;;5112689;28;20249;-77
2022/09/21 09:28:36;;;;;;;6.83;4.87;;;14.20;99.90;;;;;;5112702;28;20340;-76
2022/09/21 09:31:10;;;;;;;5.38;4.88;;;14.70;99.90;;;;;;5112793;28;20196;-77
2022/09/21 09:33:49;;;;;;;4.93;4.47;;;15.00;99.90;;;;;;5112758;28;20224;-76
2022/09/21 09:36:17;;;;;;;5.10;4.55;;;15.10;99.90;;;;;;5112689;28;20196;-76
2022/09/21 09:38:48;;;;;;;5.18;4.68;;;15.50;99.90;;;;;;5112482;28;20654;-76
2022/09/21 09:41:38;;;;;;;5.88;4.43;;;15.80;99.90;;;;;;5112408;28;20216;-76
2022/09/21 09:44:20;;;;;;;5.18;4.68;;;15.90;99.90;;;;;;5112613;28;20207;-77
2022/09/21 09:46:57;;;;;;;4.85;3.80;;;15.70;99.90;;;;;;5112774;28;20199;-77
2022/09/21 09:49:38;;;;;;;3.42;3.13;;;16.30;99.90;;;;;;5112413;28;20596;-76
2022/09/21 09:52:06;;;;;;;3.33;3.03;;;16.20;99.90;;;;;;5112710;28;20203;-76
2022/09/21 09:54:35;;;;;;;5.78;3.35;;;16.40;99.90;;;;;;5112544;28;20204;-76
2022/09/21 09:57:03;;;;;;;4.40;3.65;;;16.70;99.90;;;;;;5112373;28;20200;-77
2022/09/21 09:59:37;;;;;;;3.55;2.70;;;17.10;99.90;;;;;;5114058;28;20253;-75
2022/09/21 10:02:07;;;;;;;6.85;2.95;;;17.40;99.90;;;;;;5116067;28;20219;-76
2022/09/21 10:04:34;;;;;;;2.30;2.10;;;17.00;99.90;;;;;;5116187;28;20200;-77
2022/09/21 10:07:01;;;;;;;4.72;2.58;;;16.90;99.90;;;;;;5115968;28;20192;-78
2022/09/21 10:09:30;;;;;;;3.20;2.80;;;17.20;99.90;;;;;;5115803;28;20597;-76
2022/09/21 10:11:59;;;;;;;3.00;2.70;;;17.00;99.90;;;;;;5115761;28;20573;-76
2022/09/21 10:14:31;;;;;;;3.28;2.78;;;17.10;99.90;;;;;;5115761;28;20207;-77
2022/09/21 10:17:05;;;;;;;3.13;2.50;;;17.60;99.90;;;;;;5115981;28;20203;-79
2022/09/21 10:19:32;;;;;;;2.85;2.58;;;18.40;99.90;;;;;;5117412;28;20263;-78
2022/09/21 10:22:01;;;;;;;2.67;2.47;;;19.10;99.90;;;;;;5115410;28;20575;-77
2022/09/21 10:24:32;;;;;;;2.97;2.40;;;18.80;99.90;;;;;;5115532;28;20195;-77
2022/09/21 10:27:05;;;;;;;2.58;2.38;;;19.70;99.90;;;;;;5115854;28;20198;-76
2022/09/21 10:29:39;;;;;;;4.15;3.00;;;20.00;99.90;;;;;;5115227;28;20600;-76
2022/09/21 10:32:21;;;;;;;3.05;2.72;;;20.90;99.90;;;;;;5115448;28;20645;-76
2022/09/21 10:35:16;;;;;;;3.85;2.17;;;21.30;99.90;;;;;;5115475;28;20256;-76
2022/09/21 10:37:47;;;;;;;2.65;1.90;;;21.10;98.20;;;;;;5115463;28;20195;-77
2022/09/21 10:40:29;;;;;;;2.15;1.90;;;21.50;99.90;;;;;;5115147;28;20585;-77
2022/09/21 10:42:58;;;;;;;3.80;2.08;;;22.30;97.60;;;;;;5115151;28;20686;-76
2022/09/21 10:45:26;;;;;;;2.55;2.17;;;22.20;95.00;;;;;;5115247;27;20203;-78
2022/09/21 10:47:57;;;;;;;2.40;2.20;;;22.30;92.80;;;;;;5115076;28;20196;-78
2022/09/21 10:50:28;;;;;;;2.35;2.15;;;22.10;93.50;;;;;;5115168;28;20247;-78
2022/09/21 10:52:59;;;;;;;2.20;2.00;;;22.20;94.80;;;;;;5115239;28;20245;-77
2022/09/21 10:55:29;;;;;;;3.28;1.80;;;23.40;92.50;;;;;;5114981;28;20589;-77
2022/09/21 10:57:56;;;;;;;3.63;2.10;;;24.80;91.30;;;;;;5114777;28;20207;-77
2022/09/21 11:00:34;;;;;;;3.60;2.50;;;23.80;86.90;;;;;;5114999;28;20203;-78
2022/09/21 11:03:25;;;;;;;2.17;1.80;;;22.60;85.10;;;;;;5114930;28;20605;-78
2022/09/21 11:05:55;;;;;;;2.40;1.80;;;22.60;86.90;;;;;;5114756;28;20199;-78
2022/09/21 11:08:28;;;;;;;2.50;1.75;;;22.20;86.10;;;;;;5114688;28;20681;-78
2022/09/21 11:11:13;;;;;;;2.80;2.15;;;23.20;85.80;;;;;;5114549;28;20200;-77
2022/09/21 11:13:47;;;;;;;2.28;1.88;;;22.90;83.00;;;;;;5114807;28;20200;-78
2022/09/21 11:16:16;;;;;;;1.90;1.80;;;22.50;82.20;;;;;;5114644;28;20252;-77
2022/09/21 11:18:54;;;;;;;2.40;2.20;;;24.00;79.70;;;;;;5114512;28;20240;-77
2022/09/21 11:21:39;;;;;;;3.10;2.10;;;24.90;76.70;;;;;;5114373;28;20227;-77
2022/09/21 11:24:23;;;;;;;2.40;2.10;;;24.30;73.00;;;;;;5114574;28;20294;-78
2022/09/21 11:26:54;;;;;;;2.88;1.60;;;23.80;74.40;;;;;;5114499;28;20244;-78
2022/09/21 11:29:27;;;;;;;2.08;1.83;;;25.20;73.60;;;;;;5114144;28;20651;-78
2022/09/21 11:32:19;;;;;;;2.63;2.00;;;26.60;69.10;;;;;;5114421;28;20198;-78
2022/09/21 11:35:24;;;;;;;1.88;1.63;;;26.20;59.40;;;;;;5114439;28;20205;-78
2022/09/21 11:38:04;;;;;;;1.85;1.73;;;26.50;61.10;;;;;;5114198;28;20248;-78
2022/09/21 11:40:41;;;;;;;2.05;1.90;;;26.80;59.40;;;;;;5114217;28;20201;-78
2022/09/21 11:43:23;;;;;;;2.60;2.40;;;25.00;61.00;;;;;;5114182;28;20218;-77
2022/09/21 11:45:58;;;;;;;2.25;2.10;;;23.80;63.90;;;;;;5114007;28;20192;-77
2022/09/21 11:48:35;;;;;;;5.00;2.47;;;23.00;66.90;;;;;;5113997;28;20219;-77
2022/09/21 11:51:16;;;;;;;2.97;2.50;;;22.40;65.80;;;;;;5114066;28;20202;-78
2022/09/21 11:54:05;;;;;;;3.80;2.10;;;21.70;68.00;;;;;;5113795;28;20740;-77
2022/09/21 11:56:44;;;;;;;5.05;2.50;;;21.60;70.10;;;;;;5113793;28;20196;-78
2022/09/21 11:59:26;;;;;;;3.85;2.45;;;23.80;68.30;;;;;;5113960;28;20199;-78
2022/09/21 12:02:16;;;;;;;3.22;2.20;;;23.80;65.20;;;;;;5113760;28;20199;-77
2022/09/21 12:04:49;;;;;;;4.80;2.42;;;22.80;65.90;;;;;;5113861;28;20192;-78
2022/09/21 12:07:47;;;;;;;2.20;2.00;;;21.70;68.70;;;;;;5113881;28;20256;-78
2022/09/21 12:10:36;;;;;;;2.10;1.90;;;23.70;67.90;;;;;;5113834;28;20639;-78
2022/09/21 12:13:08;;;;;;;2.88;2.08;;;25.10;64.20;;;;;;5113746;28;20222;-76
2022/09/21 12:15:44;;;;;;;2.10;1.90;;;25.00;57.60;;;;;;5113683;28;20199;-76
2022/09/21 12:18:14;;;;;;;2.58;1.90;;;23.40;59.20;;;;;;5113650;28;20203;-76
2022/09/21 12:20:48;;;;;;;2.88;1.98;;;22.00;59.60;;;;;;5113203;28;20581;-76
2022/09/21 12:23:19;;;;;;;2.85;2.03;;;21.00;63.20;;;;;;5112704;28;20763;-76
2022/09/21 12:25:52;;;;;;;2.47;2.10;;;23.60;64.40;;;;;;5113600;28;20196;-76
2022/09/21 12:28:24;;;;;;;2.38;1.90;;;26.10;60.50;;;;;;5113317;28;20203;-76
2022/09/21 12:30:56;;;;;;;1.73;1.50;;;27.40;55.30;;;;;;5113597;28;20256;-78
2022/09/21 12:33:33;;;;;;;2.38;2.00;;;28.60;52.90;;;;;;5113375;28;20229;-78
2022/09/21 12:36:08;;;;;;;3.90;1.98;;;29.10;48.00;;;;;;5113173;28;20650;-78
2022/09/21 12:38:43;;;;;;;3.13;1.80;;;29.30;44.50;;;;;;5113308;28;20282;-77
2022/09/21 12:41:16;;;;;;;2.20;2.00;;;29.30;44.50;;;;;;5113368;28;20200;-77
2022/09/21 12:43:46;;;;;;;2.25;1.80;;;29.40;42.00;;;;;;5113137;28;20267;-77
2022/09/21 12:46:18;;;;;;;2.20;1.90;;;30.20;42.20;;;;;;5113119;28;20281;-77
2022/09/21 12:48:45;;;;;;;2.03;1.83;;;30.80;39.40;;;;;;5113354;28;20252;-78
2022/09/21 12:51:15;;;;;;;1.98;1.75;;;32.20;37.60;;;;;;5113223;28;20600;-78
2022/09/21 12:53:46;;;;;;;2.58;1.80;;;32.00;35.90;;;;;;5113119;28;20610;-78
2022/09/21 12:56:22;;;;;;;2.05;1.70;;;30.20;35.20;;;;;;5113095;28;20557;-78
2022/09/21 12:59:00;;;;;;;1.75;1.65;;;31.80;35.10;;;;;;5113000;28;20203;-79
2022/09/21 13:01:33;;;;;;;3.00;1.85;;;32.30;33.40;;;;;;5113309;28;20206;-78
2022/09/21 13:04:24;;;;;;;1.83;1.50;;;29.70;34.10;;;;;;5113213;28;20246;-78
2022/09/21 13:07:12;;;;;;;2.83;2.00;;;27.30;35.70;;;;;;5074060;28;20204;-78